sensor_id;sensor_type;location;lat;lon;timestamp;P1;durP1;ratioP1;P2;durP2;ratioP2
29916;SDS011;16786;49.466;11.068;2023-02-13T00:02:11;8.95;;;5.68;;
29916;SDS011;16786;49.466;11.068;2023-02-13T00:04:40;9.48;;;5.82;;
29916;SDS011;16786;49.466;11.068;2023-02-13T00:07:10;12.23;;;7.03;;
29916;SDS011;16786;49.466;11.068;2023-02-13T00:09:38;13.25;;;8.20;;
29916;SDS011;16786;49.466;11.068;2023-02-13T00:12:06;13.60;;;8.05;;
29916;SDS011;16786;49.466;11.068;2023-02-13T00:14:36;15.60;;;9.27;;
29916;SDS011;16786;49.466;11.068;2023-02-13T00:17:05;15.23;;;8.98;;
29916;SDS011;16786;49.466;11.068;2023-02-13T00:19:32;16.88;;;9.75;;
29916;SDS011;16786;49.466;11.068;2023-02-13T00:21:59;14.95;;;9.52;;
29916;SDS011;16786;49.466;11.068;2023-02-13T00:24:27;16.27;;;10.25;;
29916;SDS011;16786;49.466;11.068;2023-02-13T00:26:54;17.02;;;10.38;;
29916;SDS011;16786;49.466;11.068;2023-02-13T00:29:21;15.35;;;9.85;;
29916;SDS011;16786;49.466;11.068;2023-02-13T00:31:50;20.60;;;11.73;;
29916;SDS011;16786;49.466;11.068;2023-02-13T00:34:17;16.92;;;10.70;;
29916;SDS011;16786;49.466;11.068;2023-02-13T00:36:45;19.23;;;11.35;;
29916;SDS011;16786;49.466;11.068;2023-02-13T00:39:12;15.98;;;10.93;;
29916;SDS011;16786;49.466;11.068;2023-02-13T00:41:39;20.10;;;12.13;;
29916;SDS011;16786;49.466;11.068;2023-02-13T00:44:08;19.15;;;12.00;;
29916;SDS011;16786;49.466;11.068;2023-02-13T00:46:36;23.30;;;13.00;;
29916;SDS011;16786;49.466;11.068;2023-02-13T00:49:04;23.05;;;12.98;;
29916;SDS011;16786;49.466;11.068;2023-02-13T00:51:33;20.00;;;12.90;;
29916;SDS011;16786;49.466;11.068;2023-02-13T00:54:00;23.33;;;14.70;;
29916;SDS011;16786;49.466;11.068;2023-02-13T00:56:27;28.35;;;16.92;;
29916;SDS011;16786;49.466;11.068;2023-02-13T00:58:55;26.33;;;17.45;;
29916;SDS011;16786;49.466;11.068;2023-02-13T01:01:23;26.35;;;16.77;;
29916;SDS011;16786;49.466;11.068;2023-02-13T01:03:51;26.83;;;15.93;;
29916;SDS011;16786;49.466;11.068;2023-02-13T01:06:19;25.45;;;15.18;;
29916;SDS011;16786;49.466;11.068;2023-02-13T01:08:47;26.25;;;15.27;;
29916;SDS011;16786;49.466;11.068;2023-02-13T01:11:14;23.75;;;14.20;;
29916;SDS011;16786;49.466;11.068;2023-02-13T01:13:42;25.63;;;14.45;;
29916;SDS011;16786;49.466;11.068;2023-02-13T01:16:10;26.10;;;15.02;;
29916;SDS011;16786;49.466;11.068;2023-02-13T01:18:37;25.67;;;15.60;;
29916;SDS011;16786;49.466;11.068;2023-02-13T01:21:05;23.88;;;13.68;;
29916;SDS011;16786;49.466;11.068;2023-02-13T01:23:35;29.65;;;16.30;;
29916;SDS011;16786;49.466;11.068;2023-02-13T01:26:04;28.98;;;16.20;;
29916;SDS011;16786;49.466;11.068;2023-02-13T01:28:32;30.10;;;16.95;;
29916;SDS011;16786;49.466;11.068;2023-02-13T01:31:00;26.38;;;16.35;;
29916;SDS011;16786;49.466;11.068;2023-02-13T01:33:28;26.90;;;16.02;;
29916;SDS011;16786;49.466;11.068;2023-02-13T01:35:56;29.52;;;16.30;;
29916;SDS011;16786;49.466;11.068;2023-02-13T01:38:23;32.63;;;17.52;;
29916;SDS011;16786;49.466;11.068;2023-02-13T01:40:52;30.77;;;17.38;;
29916;SDS011;16786;49.466;11.068;2023-02-13T01:43:21;30.85;;;16.90;;
29916;SDS011;16786;49.466;11.068;2023-02-13T01:45:50;32.60;;;17.27;;
29916;SDS011;16786;49.466;11.068;2023-02-13T01:48:24;28.38;;;16.15;;
29916;SDS011;16786;49.466;11.068;2023-02-13T01:51:02;29.60;;;16.00;;
29916;SDS011;16786;49.466;11.068;2023-02-13T01:53:33;27.35;;;15.48;;
29916;SDS011;16786;49.466;11.068;2023-02-13T01:56:16;29.50;;;16.33;;
29916;SDS011;16786;49.466;11.068;2023-02-13T02:01:21;29.25;;;16.85;;
29916;SDS011;16786;49.466;11.068;2023-02-13T02:03:54;28.88;;;15.73;;
29916;SDS011;16786;49.466;11.068;2023-02-13T02:06:34;29.17;;;16.75;;
29916;SDS011;16786;49.466;11.068;2023-02-13T02:09:11;30.25;;;17.05;;
29916;SDS011;16786;49.466;11.068;2023-02-13T02:14:36;27.48;;;14.35;;
29916;SDS011;16786;49.466;11.068;2023-02-13T02:25:16;25.95;;;14.57;;
29916;SDS011;16786;49.466;11.068;2023-02-13T02:28:21;25.02;;;13.77;;
29916;SDS011;16786;49.466;11.068;2023-02-13T02:42:30;21.30;;;11.70;;
29916;SDS011;16786;49.466;11.068;2023-02-13T02:45:34;23.40;;;12.77;;
29916;SDS011;16786;49.466;11.068;2023-02-13T02:48:38;21.25;;;12.55;;
29916;SDS011;16786;49.466;11.068;2023-02-13T02:51:32;24.00;;;12.43;;
29916;SDS011;16786;49.466;11.068;2023-02-13T02:54:12;20.00;;;12.05;;
29916;SDS011;16786;49.466;11.068;2023-02-13T02:57:08;22.48;;;12.02;;
29916;SDS011;16786;49.466;11.068;2023-02-13T02:59:40;19.77;;;11.63;;
29916;SDS011;16786;49.466;11.068;2023-02-13T03:02:28;21.15;;;12.20;;
29916;SDS011;16786;49.466;11.068;2023-02-13T03:05:37;24.27;;;12.05;;
29916;SDS011;16786;49.466;11.068;2023-02-13T03:08:24;19.05;;;11.85;;
29916;SDS011;16786;49.466;11.068;2023-02-13T03:11:13;19.20;;;10.80;;
29916;SDS011;16786;49.466;11.068;2023-02-13T03:13:59;23.98;;;11.15;;
29916;SDS011;16786;49.466;11.068;2023-02-13T03:16:29;18.00;;;10.88;;
29916;SDS011;16786;49.466;11.068;2023-02-13T03:19:25;19.75;;;11.18;;
29916;SDS011;16786;49.466;11.068;2023-02-13T03:25:14;20.00;;;11.48;;
29916;SDS011;16786;49.466;11.068;2023-02-13T03:27:57;25.10;;;11.48;;
29916;SDS011;16786;49.466;11.068;2023-02-13T03:42:06;21.30;;;10.90;;
29916;SDS011;16786;49.466;11.068;2023-02-13T03:44:43;17.63;;;11.32;;
29916;SDS011;16786;49.466;11.068;2023-02-13T03:47:37;19.08;;;11.13;;
29916;SDS011;16786;49.466;11.068;2023-02-13T03:50:05;25.67;;;13.48;;
29916;SDS011;16786;49.466;11.068;2023-02-13T03:52:47;21.60;;;12.18;;
29916;SDS011;16786;49.466;11.068;2023-02-13T03:55:28;32.22;;;16.98;;
29916;SDS011;16786;49.466;11.068;2023-02-13T03:58:26;38.63;;;21.10;;
29916;SDS011;16786;49.466;11.068;2023-02-13T04:01:25;41.92;;;23.10;;
29916;SDS011;16786;49.466;11.068;2023-02-13T04:04:09;44.75;;;24.40;;
29916;SDS011;16786;49.466;11.068;2023-02-13T04:06:53;46.20;;;24.45;;
29916;SDS011;16786;49.466;11.068;2023-02-13T04:09:26;46.75;;;25.08;;
29916;SDS011;16786;49.466;11.068;2023-02-13T04:12:01;46.63;;;24.60;;
29916;SDS011;16786;49.466;11.068;2023-02-13T04:14:37;46.90;;;25.98;;
29916;SDS011;16786;49.466;11.068;2023-02-13T04:17:11;46.97;;;27.35;;
29916;SDS011;16786;49.466;11.068;2023-02-13T04:19:49;51.90;;;25.42;;
29916;SDS011;16786;49.466;11.068;2023-02-13T04:22:16;47.88;;;25.75;;
29916;SDS011;16786;49.466;11.068;2023-02-13T04:24:44;49.40;;;26.73;;
29916;SDS011;16786;49.466;11.068;2023-02-13T04:27:12;47.15;;;25.85;;
29916;SDS011;16786;49.466;11.068;2023-02-13T04:29:41;48.70;;;26.63;;
29916;SDS011;16786;49.466;11.068;2023-02-13T04:32:09;42.38;;;23.15;;
29916;SDS011;16786;49.466;11.068;2023-02-13T04:34:37;44.78;;;23.25;;
29916;SDS011;16786;49.466;11.068;2023-02-13T04:37:04;27.25;;;14.38;;
29916;SDS011;16786;49.466;11.068;2023-02-13T04:39:32;20.65;;;11.80;;
29916;SDS011;16786;49.466;11.068;2023-02-13T04:41:59;22.25;;;11.23;;
29916;SDS011;16786;49.466;11.068;2023-02-13T04:44:26;20.67;;;11.70;;
29916;SDS011;16786;49.466;11.068;2023-02-13T04:46:53;17.38;;;10.55;;
29916;SDS011;16786;49.466;11.068;2023-02-13T04:49:21;17.48;;;9.68;;
29916;SDS011;16786;49.466;11.068;2023-02-13T04:51:48;21.35;;;10.00;;
29916;SDS011;16786;49.466;11.068;2023-02-13T04:54:15;16.52;;;9.95;;
29916;SDS011;16786;49.466;11.068;2023-02-13T04:56:42;16.73;;;9.93;;
29916;SDS011;16786;49.466;11.068;2023-02-13T04:59:10;18.70;;;9.75;;
29916;SDS011;16786;49.466;11.068;2023-02-13T05:01:37;22.55;;;10.55;;
29916;SDS011;16786;49.466;11.068;2023-02-13T05:04:04;35.95;;;9.48;;
29916;SDS011;16786;49.466;11.068;2023-02-13T05:06:31;27.55;;;9.25;;
29916;SDS011;16786;49.466;11.068;2023-02-13T05:08:59;24.75;;;9.65;;
29916;SDS011;16786;49.466;11.068;2023-02-13T05:11:26;19.52;;;10.30;;
29916;SDS011;16786;49.466;11.068;2023-02-13T05:13:53;21.30;;;10.05;;
29916;SDS011;16786;49.466;11.068;2023-02-13T05:16:20;33.65;;;10.40;;
29916;SDS011;16786;49.466;11.068;2023-02-13T05:18:48;17.90;;;9.35;;
29916;SDS011;16786;49.466;11.068;2023-02-13T05:21:15;18.40;;;9.65;;
29916;SDS011;16786;49.466;11.068;2023-02-13T05:24:01;20.45;;;10.30;;
29916;SDS011;16786;49.466;11.068;2023-02-13T05:26:29;20.77;;;11.30;;
29916;SDS011;16786;49.466;11.068;2023-02-13T05:28:56;24.98;;;10.50;;
29916;SDS011;16786;49.466;11.068;2023-02-13T05:31:42;21.83;;;10.50;;
29916;SDS011;16786;49.466;11.068;2023-02-13T05:34:09;19.55;;;10.52;;
29916;SDS011;16786;49.466;11.068;2023-02-13T05:36:36;42.20;;;10.48;;
29916;SDS011;16786;49.466;11.068;2023-02-13T05:39:04;21.92;;;10.57;;
29916;SDS011;16786;49.466;11.068;2023-02-13T05:41:31;30.77;;;10.50;;
29916;SDS011;16786;49.466;11.068;2023-02-13T05:43:59;19.60;;;10.70;;
29916;SDS011;16786;49.466;11.068;2023-02-13T05:46:26;28.02;;;10.98;;
29916;SDS011;16786;49.466;11.068;2023-02-13T05:48:53;20.42;;;10.65;;
29916;SDS011;16786;49.466;11.068;2023-02-13T05:51:21;21.00;;;10.63;;
29916;SDS011;16786;49.466;11.068;2023-02-13T05:53:48;24.08;;;10.70;;
29916;SDS011;16786;49.466;11.068;2023-02-13T05:56:16;21.33;;;11.63;;
29916;SDS011;16786;49.466;11.068;2023-02-13T05:58:43;38.50;;;11.77;;
29916;SDS011;16786;49.466;11.068;2023-02-13T06:01:10;20.10;;;10.40;;
29916;SDS011;16786;49.466;11.068;2023-02-13T06:03:38;19.20;;;10.77;;
29916;SDS011;16786;49.466;11.068;2023-02-13T06:06:06;25.88;;;12.73;;
29916;SDS011;16786;49.466;11.068;2023-02-13T06:08:33;27.50;;;13.77;;
29916;SDS011;16786;49.466;11.068;2023-02-13T06:11:02;25.13;;;13.55;;
29916;SDS011;16786;49.466;11.068;2023-02-13T06:13:30;26.85;;;13.05;;
29916;SDS011;16786;49.466;11.068;2023-02-13T06:15:57;23.33;;;12.70;;
29916;SDS011;16786;49.466;11.068;2023-02-13T06:18:24;23.30;;;12.30;;
29916;SDS011;16786;49.466;11.068;2023-02-13T06:20:52;24.73;;;13.55;;
29916;SDS011;16786;49.466;11.068;2023-02-13T06:23:19;22.83;;;12.32;;
29916;SDS011;16786;49.466;11.068;2023-02-13T06:25:46;23.67;;;12.20;;
29916;SDS011;16786;49.466;11.068;2023-02-13T06:28:14;27.73;;;13.05;;
29916;SDS011;16786;49.466;11.068;2023-02-13T06:30:41;25.35;;;14.10;;
29916;SDS011;16786;49.466;11.068;2023-02-13T06:33:08;24.30;;;12.77;;
29916;SDS011;16786;49.466;11.068;2023-02-13T06:35:35;23.63;;;13.50;;
29916;SDS011;16786;49.466;11.068;2023-02-13T06:38:03;22.60;;;12.73;;
29916;SDS011;16786;49.466;11.068;2023-02-13T06:40:30;23.20;;;12.32;;
29916;SDS011;16786;49.466;11.068;2023-02-13T06:42:57;22.67;;;12.60;;
29916;SDS011;16786;49.466;11.068;2023-02-13T06:45:25;20.20;;;11.50;;
29916;SDS011;16786;49.466;11.068;2023-02-13T06:47:52;29.13;;;15.85;;
29916;SDS011;16786;49.466;11.068;2023-02-13T06:50:19;29.58;;;15.98;;
29916;SDS011;16786;49.466;11.068;2023-02-13T06:52:47;30.80;;;16.08;;
29916;SDS011;16786;49.466;11.068;2023-02-13T06:55:16;28.77;;;15.27;;
29916;SDS011;16786;49.466;11.068;2023-02-13T06:57:44;29.70;;;16.35;;
29916;SDS011;16786;49.466;11.068;2023-02-13T07:00:12;31.73;;;17.00;;
29916;SDS011;16786;49.466;11.068;2023-02-13T07:02:41;30.73;;;16.10;;
29916;SDS011;16786;49.466;11.068;2023-02-13T07:05:10;27.10;;;14.77;;
29916;SDS011;16786;49.466;11.068;2023-02-13T07:07:38;21.90;;;12.93;;
29916;SDS011;16786;49.466;11.068;2023-02-13T07:10:07;23.92;;;13.15;;
29916;SDS011;16786;49.466;11.068;2023-02-13T07:12:37;23.58;;;12.25;;
29916;SDS011;16786;49.466;11.068;2023-02-13T07:15:05;20.77;;;11.60;;
29916;SDS011;16786;49.466;11.068;2023-02-13T07:17:33;22.10;;;13.18;;
29916;SDS011;16786;49.466;11.068;2023-02-13T07:20:02;23.30;;;13.15;;
29916;SDS011;16786;49.466;11.068;2023-02-13T07:22:39;20.60;;;11.60;;
29916;SDS011;16786;49.466;11.068;2023-02-13T07:25:06;34.03;;;12.27;;
29916;SDS011;16786;49.466;11.068;2023-02-13T07:27:33;24.27;;;12.00;;
29916;SDS011;16786;49.466;11.068;2023-02-13T07:30:01;23.88;;;12.77;;
29916;SDS011;16786;49.466;11.068;2023-02-13T07:32:28;23.00;;;11.90;;
29916;SDS011;16786;49.466;11.068;2023-02-13T07:34:55;19.98;;;11.55;;
29916;SDS011;16786;49.466;11.068;2023-02-13T07:37:28;19.60;;;10.68;;
29916;SDS011;16786;49.466;11.068;2023-02-13T07:39:57;22.38;;;11.43;;
29916;SDS011;16786;49.466;11.068;2023-02-13T07:42:24;24.13;;;12.38;;
29916;SDS011;16786;49.466;11.068;2023-02-13T07:44:51;34.03;;;17.98;;
29916;SDS011;16786;49.466;11.068;2023-02-13T07:47:18;33.45;;;17.65;;
29916;SDS011;16786;49.466;11.068;2023-02-13T07:49:46;29.35;;;16.25;;
29916;SDS011;16786;49.466;11.068;2023-02-13T07:52:13;28.88;;;14.45;;
29916;SDS011;16786;49.466;11.068;2023-02-13T07:54:40;25.83;;;12.13;;
29916;SDS011;16786;49.466;11.068;2023-02-13T07:57:13;23.75;;;12.85;;
29916;SDS011;16786;49.466;11.068;2023-02-13T07:59:42;23.77;;;12.68;;
29916;SDS011;16786;49.466;11.068;2023-02-13T08:02:12;22.92;;;12.43;;
29916;SDS011;16786;49.466;11.068;2023-02-13T08:04:40;26.40;;;13.13;;
29916;SDS011;16786;49.466;11.068;2023-02-13T08:07:15;27.13;;;14.88;;
29916;SDS011;16786;49.466;11.068;2023-02-13T08:09:43;23.58;;;13.88;;
29916;SDS011;16786;49.466;11.068;2023-02-13T08:12:30;27.92;;;14.55;;
29916;SDS011;16786;49.466;11.068;2023-02-13T08:15:00;33.28;;;15.00;;
29916;SDS011;16786;49.466;11.068;2023-02-13T08:17:27;26.25;;;14.98;;
29916;SDS011;16786;49.466;11.068;2023-02-13T08:19:55;33.88;;;16.75;;
29916;SDS011;16786;49.466;11.068;2023-02-13T08:22:22;36.05;;;18.38;;
29916;SDS011;16786;49.466;11.068;2023-02-13T08:24:49;36.00;;;18.02;;
29916;SDS011;16786;49.466;11.068;2023-02-13T08:27:16;32.83;;;18.08;;
29916;SDS011;16786;49.466;11.068;2023-02-13T08:29:44;37.47;;;19.80;;
29916;SDS011;16786;49.466;11.068;2023-02-13T08:32:11;38.17;;;20.67;;
29916;SDS011;16786;49.466;11.068;2023-02-13T08:34:39;33.25;;;19.27;;
29916;SDS011;16786;49.466;11.068;2023-02-13T08:37:06;35.88;;;19.55;;
29916;SDS011;16786;49.466;11.068;2023-02-13T08:39:33;39.13;;;20.92;;
29916;SDS011;16786;49.466;11.068;2023-02-13T08:42:00;35.53;;;20.92;;
29916;SDS011;16786;49.466;11.068;2023-02-13T08:44:28;36.63;;;19.67;;
29916;SDS011;16786;49.466;11.068;2023-02-13T08:46:55;34.40;;;18.20;;
29916;SDS011;16786;49.466;11.068;2023-02-13T08:49:23;36.25;;;18.63;;
29916;SDS011;16786;49.466;11.068;2023-02-13T08:51:50;33.97;;;18.00;;
29916;SDS011;16786;49.466;11.068;2023-02-13T08:54:17;32.80;;;17.65;;
29916;SDS011;16786;49.466;11.068;2023-02-13T08:56:44;30.30;;;16.33;;
29916;SDS011;16786;49.466;11.068;2023-02-13T08:59:12;35.38;;;16.70;;
29916;SDS011;16786;49.466;11.068;2023-02-13T09:01:40;33.00;;;17.85;;
29916;SDS011;16786;49.466;11.068;2023-02-13T09:04:07;33.65;;;17.52;;
29916;SDS011;16786;49.466;11.068;2023-02-13T09:06:35;32.85;;;18.13;;
29916;SDS011;16786;49.466;11.068;2023-02-13T09:09:05;36.13;;;19.35;;
29916;SDS011;16786;49.466;11.068;2023-02-13T09:11:32;34.75;;;18.50;;
29916;SDS011;16786;49.466;11.068;2023-02-13T09:14:00;30.88;;;18.13;;
29916;SDS011;16786;49.466;11.068;2023-02-13T09:16:27;36.35;;;18.13;;
29916;SDS011;16786;49.466;11.068;2023-02-13T09:18:55;35.67;;;19.65;;
29916;SDS011;16786;49.466;11.068;2023-02-13T09:21:22;34.13;;;19.58;;
29916;SDS011;16786;49.466;11.068;2023-02-13T09:23:49;37.80;;;20.85;;
29916;SDS011;16786;49.466;11.068;2023-02-13T09:26:17;42.25;;;21.63;;
29916;SDS011;16786;49.466;11.068;2023-02-13T09:28:46;41.15;;;21.35;;
29916;SDS011;16786;49.466;11.068;2023-02-13T09:31:17;41.30;;;22.52;;
29916;SDS011;16786;49.466;11.068;2023-02-13T09:33:47;42.70;;;22.77;;
29916;SDS011;16786;49.466;11.068;2023-02-13T09:36:17;43.20;;;23.30;;
29916;SDS011;16786;49.466;11.068;2023-02-13T09:38:46;43.70;;;23.35;;
29916;SDS011;16786;49.466;11.068;2023-02-13T09:41:18;39.83;;;21.95;;
29916;SDS011;16786;49.466;11.068;2023-02-13T09:46:38;43.10;;;22.85;;
29916;SDS011;16786;49.466;11.068;2023-02-13T09:49:10;39.97;;;22.40;;
29916;SDS011;16786;49.466;11.068;2023-02-13T09:51:41;47.42;;;23.98;;
29916;SDS011;16786;49.466;11.068;2023-02-13T09:54:14;40.72;;;22.92;;
29916;SDS011;16786;49.466;11.068;2023-02-13T09:59:32;40.90;;;21.77;;
29916;SDS011;16786;49.466;11.068;2023-02-13T10:08:17;35.35;;;20.83;;
29916;SDS011;16786;49.466;11.068;2023-02-13T10:11:04;38.20;;;21.90;;
29916;SDS011;16786;49.466;11.068;2023-02-13T10:14:14;41.67;;;21.08;;
29916;SDS011;16786;49.466;11.068;2023-02-13T10:16:46;34.72;;;19.63;;
29916;SDS011;16786;49.466;11.068;2023-02-13T10:22:04;31.23;;;18.15;;
29916;SDS011;16786;49.466;11.068;2023-02-13T10:24:47;34.78;;;20.60;;
29916;SDS011;16786;49.466;11.068;2023-02-13T10:27:23;36.28;;;19.73;;
29916;SDS011;16786;49.466;11.068;2023-02-13T10:32:42;38.28;;;20.15;;
29916;SDS011;16786;49.466;11.068;2023-02-13T10:35:27;33.03;;;18.10;;
29916;SDS011;16786;49.466;11.068;2023-02-13T10:37:57;32.65;;;18.98;;
29916;SDS011;16786;49.466;11.068;2023-02-13T10:40:31;39.72;;;20.02;;
29916;SDS011;16786;49.466;11.068;2023-02-13T10:43:08;35.08;;;19.58;;
29916;SDS011;16786;49.466;11.068;2023-02-13T10:45:48;33.17;;;19.60;;
29916;SDS011;16786;49.466;11.068;2023-02-13T10:56:47;31.05;;;18.08;;
29916;SDS011;16786;49.466;11.068;2023-02-13T11:02:22;29.25;;;17.63;;
29916;SDS011;16786;49.466;11.068;2023-02-13T11:04:59;31.23;;;19.00;;
29916;SDS011;16786;49.466;11.068;2023-02-13T11:07:32;25.85;;;17.48;;
29916;SDS011;16786;49.466;11.068;2023-02-13T11:10:02;27.20;;;17.33;;
29916;SDS011;16786;49.466;11.068;2023-02-13T11:12:39;29.75;;;18.48;;
29916;SDS011;16786;49.466;11.068;2023-02-13T11:15:07;28.38;;;18.77;;
29916;SDS011;16786;49.466;11.068;2023-02-13T11:17:50;29.92;;;19.10;;
29916;SDS011;16786;49.466;11.068;2023-02-13T11:24:00;33.70;;;19.80;;
29916;SDS011;16786;49.466;11.068;2023-02-13T11:25:59;30.48;;;18.00;;
29916;SDS011;16786;49.466;11.068;2023-02-13T11:28:29;32.35;;;19.73;;
29916;SDS011;16786;49.466;11.068;2023-02-13T11:31:12;32.35;;;20.30;;
29916;SDS011;16786;49.466;11.068;2023-02-13T11:33:47;29.13;;;18.80;;
29916;SDS011;16786;49.466;11.068;2023-02-13T11:36:23;28.65;;;17.83;;
29916;SDS011;16786;49.466;11.068;2023-02-13T11:39:25;30.70;;;18.05;;
29916;SDS011;16786;49.466;11.068;2023-02-13T11:41:46;32.20;;;18.10;;
29916;SDS011;16786;49.466;11.068;2023-02-13T11:44:29;33.38;;;18.60;;
29916;SDS011;16786;49.466;11.068;2023-02-13T11:46:59;26.65;;;18.58;;
29916;SDS011;16786;49.466;11.068;2023-02-13T11:49:37;26.88;;;16.95;;
29916;SDS011;16786;49.466;11.068;2023-02-13T11:52:26;25.98;;;17.60;;
29916;SDS011;16786;49.466;11.068;2023-02-13T11:55:04;25.58;;;17.27;;
29916;SDS011;16786;49.466;11.068;2023-02-13T11:57:55;26.95;;;17.23;;
29916;SDS011;16786;49.466;11.068;2023-02-13T12:00:46;29.05;;;18.50;;
29916;SDS011;16786;49.466;11.068;2023-02-13T12:06:04;27.88;;;17.83;;
29916;SDS011;16786;49.466;11.068;2023-02-13T12:08:39;28.55;;;17.52;;
29916;SDS011;16786;49.466;11.068;2023-02-13T12:11:23;26.90;;;17.15;;
29916;SDS011;16786;49.466;11.068;2023-02-13T12:13:53;26.08;;;17.08;;
29916;SDS011;16786;49.466;11.068;2023-02-13T12:18:50;26.05;;;15.90;;
29916;SDS011;16786;49.466;11.068;2023-02-13T12:21:27;29.55;;;17.25;;
29916;SDS011;16786;49.466;11.068;2023-02-13T12:29:57;19.20;;;14.20;;
29916;SDS011;16786;49.466;11.068;2023-02-13T12:35:55;18.13;;;12.80;;
29916;SDS011;16786;49.466;11.068;2023-02-13T12:38:44;18.42;;;13.07;;
29916;SDS011;16786;49.466;11.068;2023-02-13T12:41:37;18.02;;;12.25;;
29916;SDS011;16786;49.466;11.068;2023-02-13T13:06:17;15.13;;;11.90;;
29916;SDS011;16786;49.466;11.068;2023-02-13T13:17:31;18.25;;;13.23;;
29916;SDS011;16786;49.466;11.068;2023-02-13T13:25:33;14.57;;;13.05;;
29916;SDS011;16786;49.466;11.068;2023-02-13T13:28:36;13.50;;;12.05;;
29916;SDS011;16786;49.466;11.068;2023-02-13T13:31:05;15.32;;;12.73;;
29916;SDS011;16786;49.466;11.068;2023-02-13T13:33:33;12.27;;;10.98;;
29916;SDS011;16786;49.466;11.068;2023-02-13T13:38:59;12.48;;;10.88;;
29916;SDS011;16786;49.466;11.068;2023-02-13T13:49:36;12.18;;;10.93;;
29916;SDS011;16786;49.466;11.068;2023-02-13T13:52:36;12.77;;;11.45;;
29916;SDS011;16786;49.466;11.068;2023-02-13T13:55:03;13.40;;;11.77;;
29916;SDS011;16786;49.466;11.068;2023-02-13T14:02:48;13.27;;;11.98;;
29916;SDS011;16786;49.466;11.068;2023-02-13T14:05:24;14.00;;;12.70;;
29916;SDS011;16786;49.466;11.068;2023-02-13T14:20:41;14.57;;;12.57;;
29916;SDS011;16786;49.466;11.068;2023-02-13T14:31:22;12.13;;;9.90;;
29916;SDS011;16786;49.466;11.068;2023-02-13T14:34:03;9.32;;;8.20;;
29916;SDS011;16786;49.466;11.068;2023-02-13T14:36:38;10.25;;;9.30;;
29916;SDS011;16786;49.466;11.068;2023-02-13T14:46:52;11.73;;;8.40;;
29916;SDS011;16786;49.466;11.068;2023-02-13T14:49:23;12.13;;;10.82;;
29916;SDS011;16786;49.466;11.068;2023-02-13T14:52:07;9.77;;;8.15;;
29916;SDS011;16786;49.466;11.068;2023-02-13T14:54:45;9.57;;;8.60;;
29916;SDS011;16786;49.466;11.068;2023-02-13T14:57:20;11.02;;;9.80;;
29916;SDS011;16786;49.466;11.068;2023-02-13T14:59:55;12.70;;;11.32;;
29916;SDS011;16786;49.466;11.068;2023-02-13T15:02:28;13.43;;;11.98;;
29916;SDS011;16786;49.466;11.068;2023-02-13T15:05:03;13.65;;;12.23;;
29916;SDS011;16786;49.466;11.068;2023-02-13T15:07:34;15.27;;;12.93;;
29916;SDS011;16786;49.466;11.068;2023-02-13T15:13:17;13.70;;;12.20;;
29916;SDS011;16786;49.466;11.068;2023-02-13T15:15:50;18.33;;;12.57;;
29916;SDS011;16786;49.466;11.068;2023-02-13T15:18:24;15.18;;;12.20;;
29916;SDS011;16786;49.466;11.068;2023-02-13T15:20:57;14.00;;;12.20;;
29916;SDS011;16786;49.466;11.068;2023-02-13T15:23:27;14.07;;;12.50;;
29916;SDS011;16786;49.466;11.068;2023-02-13T15:25:57;12.88;;;11.55;;
29916;SDS011;16786;49.466;11.068;2023-02-13T15:28:31;15.27;;;12.65;;
29916;SDS011;16786;49.466;11.068;2023-02-13T15:31:00;14.55;;;13.02;;
29916;SDS011;16786;49.466;11.068;2023-02-13T15:33:48;12.95;;;10.48;;
29916;SDS011;16786;49.466;11.068;2023-02-13T15:36:17;12.52;;;11.27;;
29916;SDS011;16786;49.466;11.068;2023-02-13T15:38:57;10.38;;;9.32;;
29916;SDS011;16786;49.466;11.068;2023-02-13T15:41:27;12.30;;;10.57;;
29916;SDS011;16786;49.466;11.068;2023-02-13T15:43:58;11.52;;;9.90;;
29916;SDS011;16786;49.466;11.068;2023-02-13T15:46:27;10.38;;;9.27;;
29916;SDS011;16786;49.466;11.068;2023-02-13T15:48:57;10.38;;;9.32;;
29916;SDS011;16786;49.466;11.068;2023-02-13T15:51:36;12.13;;;10.18;;
29916;SDS011;16786;49.466;11.068;2023-02-13T15:54:04;11.68;;;9.85;;
29916;SDS011;16786;49.466;11.068;2023-02-13T15:56:34;12.50;;;10.93;;
29916;SDS011;16786;49.466;11.068;2023-02-13T15:59:03;13.25;;;11.13;;
29916;SDS011;16786;49.466;11.068;2023-02-13T16:01:30;11.52;;;10.18;;
29916;SDS011;16786;49.466;11.068;2023-02-13T16:04:03;14.80;;;10.35;;
29916;SDS011;16786;49.466;11.068;2023-02-13T16:06:33;11.70;;;10.48;;
29916;SDS011;16786;49.466;11.068;2023-02-13T16:09:02;12.82;;;10.18;;
29916;SDS011;16786;49.466;11.068;2023-02-13T16:11:38;11.50;;;10.10;;
29916;SDS011;16786;49.466;11.068;2023-02-13T16:19:35;13.65;;;10.50;;
29916;SDS011;16786;49.466;11.068;2023-02-13T16:22:34;14.45;;;10.40;;
29916;SDS011;16786;49.466;11.068;2023-02-13T16:27:47;14.18;;;10.50;;
29916;SDS011;16786;49.466;11.068;2023-02-13T16:30:24;14.52;;;11.00;;
29916;SDS011;16786;49.466;11.068;2023-02-13T16:33:39;19.00;;;12.05;;
29916;SDS011;16786;49.466;11.068;2023-02-13T16:35:42;13.23;;;11.20;;
29916;SDS011;16786;49.466;11.068;2023-02-13T16:38:23;12.75;;;11.05;;
29916;SDS011;16786;49.466;11.068;2023-02-13T16:40:51;16.20;;;12.15;;
29916;SDS011;16786;49.466;11.068;2023-02-13T16:43:37;17.92;;;12.52;;
29916;SDS011;16786;49.466;11.068;2023-02-13T16:48:38;15.85;;;11.40;;
29916;SDS011;16786;49.466;11.068;2023-02-13T16:51:06;18.00;;;12.13;;
29916;SDS011;16786;49.466;11.068;2023-02-13T16:53:34;20.33;;;12.77;;
29916;SDS011;16786;49.466;11.068;2023-02-13T16:56:09;19.63;;;13.35;;
29916;SDS011;16786;49.466;11.068;2023-02-13T16:58:37;18.63;;;12.30;;
29916;SDS011;16786;49.466;11.068;2023-02-13T17:01:05;19.08;;;12.73;;
29916;SDS011;16786;49.466;11.068;2023-02-13T17:03:33;16.58;;;11.73;;
29916;SDS011;16786;49.466;11.068;2023-02-13T17:06:02;18.73;;;11.68;;
29916;SDS011;16786;49.466;11.068;2023-02-13T17:08:30;18.50;;;11.70;;
29916;SDS011;16786;49.466;11.068;2023-02-13T17:11:03;20.80;;;12.60;;
29916;SDS011;16786;49.466;11.068;2023-02-13T17:13:33;19.60;;;11.55;;
29916;SDS011;16786;49.466;11.068;2023-02-13T17:16:02;17.17;;;11.55;;
29916;SDS011;16786;49.466;11.068;2023-02-13T17:18:30;20.90;;;11.32;;
29916;SDS011;16786;49.466;11.068;2023-02-13T17:20:58;19.55;;;11.63;;
29916;SDS011;16786;49.466;11.068;2023-02-13T17:23:26;21.50;;;11.93;;
29916;SDS011;16786;49.466;11.068;2023-02-13T17:25:54;19.50;;;11.18;;
29916;SDS011;16786;49.466;11.068;2023-02-13T17:28:24;20.70;;;12.32;;
29916;SDS011;16786;49.466;11.068;2023-02-13T17:30:55;18.58;;;12.23;;
29916;SDS011;16786;49.466;11.068;2023-02-13T17:33:25;18.63;;;12.30;;
29916;SDS011;16786;49.466;11.068;2023-02-13T17:35:55;19.75;;;11.90;;
29916;SDS011;16786;49.466;11.068;2023-02-13T17:38:23;23.30;;;12.82;;
29916;SDS011;16786;49.466;11.068;2023-02-13T17:40:50;18.35;;;11.60;;
29916;SDS011;16786;49.466;11.068;2023-02-13T17:43:19;19.75;;;11.55;;